Time;durP1;ratioP1;P1;durP2;ratioP2;P2;SDS_P1;SDS_P2;PMS_P1;PMS_P2;Temp;Humidity;BMP_temperature;BMP_pressure;BME280_temperature;BME280_humidity;BME280_pressure;Samples;Min_cycle;Max_cycle;Signal;HPM_P1;HPM_P2
2023/03/01 00:01:30;;;;;;;59.00;30.35;;;;;;;-4.14;72.87;101609.94;1733078;82;25620;-46
2023/03/01 00:03:59;;;;;;;59.23;29.98;;;;;;;-4.16;72.31;101600.05;1733174;82;25515;-47
2023/03/01 00:06:27;;;;;;;65.42;29.67;;;;;;;-4.17;71.55;101603.68;1733238;82;25601;-46
2023/03/01 00:08:55;;;;;;;68.33;31.77;;;;;;;-4.20;71.84;101592.98;1733342;82;27047;-47
2023/03/01 00:11:31;;;;;;;63.02;30.23;;;;;;;-4.19;72.08;101592.47;1733150;82;27640;-46
2023/03/01 00:14:02;;;;;;;65.72;31.87;;;;;;;-4.19;72.45;101594.64;1733010;82;25452;-46
2023/03/01 00:16:33;;;;;;;66.47;31.62;;;;;;;-4.19;72.68;101594.64;1733227;82;25606;-46
2023/03/01 00:19:02;;;;;;;65.57;32.70;;;;;;;-4.20;72.70;101602.23;1732737;82;25547;-47
2023/03/01 00:21:29;;;;;;;70.03;33.50;;;;;;;-4.20;72.66;101595.63;1733312;82;25545;-46
2023/03/01 00:23:58;;;;;;;68.12;33.15;;;;;;;-4.21;73.12;101586.55;1733171;82;29604;-49
2023/03/01 00:26:27;;;;;;;76.02;34.13;;;;;;;-4.24;73.51;101582.46;1732999;82;25583;-46
2023/03/01 00:28:57;;;;;;;73.12;33.88;;;;;;;-4.24;73.56;101571.89;1736958;81;25584;-47
2023/03/01 00:31:29;;;;;;;72.30;33.88;;;;;;;-4.20;73.95;101581.09;1754299;81;25537;-47
2023/03/01 00:34:00;;;;;;;76.12;34.67;;;;;;;-4.18;73.95;101578.27;1754343;81;25548;-47
2023/03/01 00:36:33;;;;;;;76.95;36.83;;;;;;;-4.16;74.07;101585.01;1728986;81;27512;-47
2023/03/01 00:39:01;;;;;;;73.52;35.63;;;;;;;-4.14;74.31;101583.03;1752741;81;25550;-46
2023/03/01 00:41:28;;;;;;;79.07;36.33;;;;;;;-4.10;74.46;101582.64;1754303;81;25571;-47
2023/03/01 00:43:56;;;;;;;78.70;35.35;;;;;;;-4.06;74.28;101582.63;1754252;81;25474;-47
2023/03/01 00:46:26;;;;;;;77.17;35.25;;;;;;;-4.05;74.25;101582.92;1754381;81;25550;-47
2023/03/01 00:48:54;;;;;;;74.65;34.27;;;;;;;-4.03;74.24;101588.88;1754302;81;27467;-47
2023/03/01 00:51:26;;;;;;;82.10;36.28;;;;;;;-4.02;74.01;101587.38;1754215;81;25783;-48
2023/03/01 00:53:56;;;;;;;71.50;35.58;;;;;;;-4.02;73.93;101587.38;1754297;81;25450;-47
2023/03/01 00:56:24;;;;;;;72.35;34.88;;;;;;;-4.03;74.17;101594.16;1754300;81;25562;-46
2023/03/01 00:58:51;;;;;;;76.90;36.30;;;;;;;-4.01;74.29;101582.91;1754288;81;25402;-47
2023/03/01 01:01:27;;;;;;;76.00;35.95;;;;;;;-3.99;74.68;101583.53;1754261;81;28270;-48
2023/03/01 01:04:01;;;;;;;82.20;38.78;;;;;;;-3.98;74.69;101575.94;1754203;81;25566;-47
2023/03/01 01:06:35;;;;;;;77.45;38.25;;;;;;;-3.99;74.32;101572.97;1754306;81;25550;-47
2023/03/01 01:09:04;;;;;;;76.12;35.63;;;;;;;-4.00;74.48;101568.67;1754275;81;25651;-45
2023/03/01 01:11:34;;;;;;;72.75;35.35;;;;;;;-4.00;74.54;101576.12;1754346;81;25616;-46
2023/03/01 01:14:02;;;;;;;76.35;34.90;;;;;;;-4.02;74.17;101566.71;1754271;81;27551;-47
2023/03/01 01:16:30;;;;;;;81.78;35.73;;;;;;;-4.04;74.13;101567.40;1754169;81;25387;-45
2023/03/01 01:18:58;;;;;;;69.17;33.73;;;;;;;-4.07;73.20;101548.77;1754235;81;25377;-45
2023/03/01 01:21:27;;;;;;;73.52;34.95;;;;;;;-4.10;73.68;101543.84;1754227;81;25487;-46
2023/03/01 01:23:55;;;;;;;76.85;35.60;;;;;;;-4.10;73.83;101549.13;1754280;81;25606;-46
2023/03/01 01:26:28;;;;;;;70.92;35.03;;;;;;;-4.10;74.14;101546.97;1754371;81;26540;-46
2023/03/01 01:28:55;;;;;;;81.55;36.48;;;;;;;-4.12;74.20;101552.43;1754120;81;25398;-47
2023/03/01 01:31:23;;;;;;;79.53;36.00;;;;;;;-4.11;74.47;101561.20;1754290;81;25456;-46
2023/03/01 01:33:53;;;;;;;77.08;36.73;;;;;;;-4.11;74.34;101551.95;1754297;81;25588;-46
2023/03/01 01:36:22;;;;;;;77.12;36.25;;;;;;;-4.14;74.20;101551.31;1754569;81;25433;-47
2023/03/01 01:38:49;;;;;;;78.37;36.53;;;;;;;-4.18;74.07;101553.98;1754499;81;28244;-46
2023/03/01 01:41:19;;;;;;;75.37;35.60;;;;;;;-4.22;74.01;101545.27;1754287;81;25824;-46
2023/03/01 01:44:10;;;;;;;82.10;37.58;;;;;;;-4.26;73.93;101544.81;1754401;81;25659;-46
2023/03/01 01:46:48;;;;;;;73.45;36.15;;;;;;;-4.30;74.00;101540.08;1754403;81;25496;-49
2023/03/01 01:49:26;;;;;;;75.60;35.55;;;;;;;-4.32;73.57;101532.34;1754429;81;25428;-50
2023/03/01 01:52:05;;;;;;;74.87;34.15;;;;;;;-4.35;73.84;101534.82;1754432;81;27506;-48
2023/03/01 01:55:01;;;;;;;72.65;32.95;;;;;;;-4.38;74.07;101527.76;1754307;81;25610;-48
2023/03/01 01:57:39;;;;;;;71.53;34.38;;;;;;;-4.39;74.20;101534.87;1753770;81;25413;-47
2023/03/01 02:00:16;;;;;;;83.58;37.17;;;;;;;-4.40;73.58;101526.61;1754344;81;25597;-47
2023/03/01 02:02:47;;;;;;;81.90;37.60;;;;;;;-4.42;73.83;101527.30;1753863;81;25471;-47
2023/03/01 02:05:19;;;;;;;78.15;36.45;;;;;;;-4.42;74.20;101529.94;1754423;81;27575;-47
2023/03/01 02:07:47;;;;;;;82.90;37.53;;;;;;;-4.42;74.24;101522.53;1753653;81;25397;-47
2023/03/01 02:10:16;;;;;;;75.60;36.28;;;;;;;-4.44;74.20;101521.86;1754593;81;25559;-46
2023/03/01 02:12:43;;;;;;;80.42;36.65;;;;;;;-4.45;74.78;101526.33;1754337;81;25602;-46
2023/03/01 02:15:11;;;;;;;76.53;36.75;;;;;;;-4.43;75.18;101528.29;1754364;81;25437;-46
2023/03/01 02:17:38;;;;;;;76.12;34.95;;;;;;;-4.41;75.22;101517.55;1754340;81;28171;-46
2023/03/01 02:20:15;;;;;;;78.65;36.77;;;;;;;-4.41;75.31;101517.55;1754318;81;25813;-47
2023/03/01 02:22:45;;;;;;;74.10;36.33;;;;;;;-4.43;75.40;101508.98;1754239;81;25463;-47
2023/03/01 02:25:29;;;;;;;83.60;37.30;;;;;;;-4.41;75.53;101509.14;1754324;81;27051;-47
2023/03/01 02:28:16;;;;;;;78.22;35.13;;;;;;;-4.40;75.88;101513.41;1754123;81;25546;-47
2023/03/01 02:33:38;;;;;;;78.22;36.85;;;;;;;-4.34;76.01;101510.06;1754224;81;26020;-47
2023/03/01 02:36:13;;;;;;;83.42;36.17;;;;;;;-4.31;76.21;101494.33;1754407;81;25369;-48
2023/03/01 02:38:41;;;;;;;87.10;37.83;;;;;;;-4.28;76.30;101495.80;1753904;81;25552;-48
2023/03/01 02:41:12;;;;;;;79.07;37.78;;;;;;;-4.26;76.33;101496.44;1754578;81;25530;-48
2023/03/01 02:43:40;;;;;;;89.90;37.13;;;;;;;-4.24;75.93;101493.11;1754362;81;27463;-48
2023/03/01 02:46:18;;;;;;;75.55;35.25;;;;;;;-4.24;76.01;101488.66;1754256;81;25638;-48
2023/03/01 02:48:49;;;;;;;72.30;35.38;;;;;;;-4.23;76.02;101498.21;1754330;81;25534;-48
2023/03/01 02:51:28;;;;;;;79.10;35.28;;;;;;;-4.20;76.23;101497.05;1754347;81;26069;-45
2023/03/01 02:54:38;;;;;;;67.27;32.10;;;;;;;-4.22;75.90;101486.66;1753222;81;32728;-47
2023/03/01 02:57:07;;;;;;;75.12;34.53;;;;;;;-4.22;75.61;101489.78;1754372;81;27500;-48
2023/03/01 02:59:40;;;;;;;82.72;36.95;;;;;;;-4.21;75.91;101475.58;1754394;81;33143;-48
2023/03/01 03:02:10;;;;;;;77.95;35.15;;;;;;;-4.21;76.44;101482.99;1754329;81;25398;-47
2023/03/01 03:04:36;;;;;;;83.72;37.73;;;;;;;-4.18;76.82;101479.19;1752407;81;25476;-48
2023/03/01 03:07:02;;;;;;;77.45;34.18;;;;;;;-4.15;76.87;101474.34;1754350;81;32388;-47
2023/03/01 03:09:28;;;;;;;82.82;36.33;;;;;;;-4.14;76.72;101477.33;1754276;81;29598;-47
2023/03/01 03:11:54;;;;;;;75.92;34.85;;;;;;;-4.11;76.74;101462.09;1754282;81;25367;-47
2023/03/01 03:14:21;;;;;;;82.82;37.48;;;;;;;-4.10;76.65;101457.11;1754259;81;25551;-46
2023/03/01 03:16:51;;;;;;;79.17;35.75;;;;;;;-4.10;76.74;101455.80;1754275;81;25486;-46
2023/03/01 03:19:19;;;;;;;76.70;34.75;;;;;;;-4.11;76.58;101458.95;1754425;81;25599;-46
2023/03/01 03:21:47;;;;;;;82.78;37.20;;;;;;;-4.13;76.86;101455.16;1754305;81;28162;-46
2023/03/01 03:24:13;;;;;;;78.42;37.35;;;;;;;-4.10;76.64;101455.80;1754227;81;25395;-46
2023/03/01 03:26:39;;;;;;;76.17;36.48;;;;;;;-4.09;76.67;101456.94;1754299;81;25503;-46
2023/03/01 03:29:05;;;;;;;78.87;35.63;;;;;;;-4.09;76.64;101449.52;1754229;81;25557;-46
2023/03/01 03:31:33;;;;;;;80.75;35.30;;;;;;;-4.08;76.58;101453.30;1754211;81;25459;-47
2023/03/01 03:34:00;;;;;;;77.30;36.20;;;;;;;-4.07;76.65;101455.43;1754305;80;28251;-48
2023/03/01 03:36:28;;;;;;;72.50;33.70;;;;;;;-4.07;76.69;101462.88;1754212;81;25365;-46
2023/03/01 03:38:55;;;;;;;79.72;36.58;;;;;;;-4.07;76.63;101465.52;1754264;81;25577;-47
2023/03/01 03:41:21;;;;;;;74.67;34.23;;;;;;;-4.05;76.49;101458.70;1754266;81;25561;-48
2023/03/01 03:43:48;;;;;;;74.25;34.25;;;;;;;-4.06;76.47;101463.69;1754305;81;25656;-48
2023/03/01 03:46:16;;;;;;;77.72;35.98;;;;;;;-4.05;76.47;101463.98;1754246;81;29712;-47
2023/03/01 03:48:46;;;;;;;77.75;34.58;;;;;;;-4.07;76.38;101447.50;1754178;81;25462;-48
2023/03/01 03:51:16;;;;;;;70.20;32.48;;;;;;;-4.07;76.28;101444.86;1754431;81;25586;-48
2023/03/01 03:53:45;;;;;;;70.70;31.35;;;;;;;-4.09;76.56;101437.11;1754264;81;26092;-48
2023/03/01 03:56:12;;;;;;;72.87;33.05;;;;;;;-4.09;76.74;101431.83;1754413;81;25654;-48
2023/03/01 03:58:40;;;;;;;68.72;29.37;;;;;;;-4.08;76.36;101425.55;1754259;81;27433;-48
2023/03/01 04:01:07;;;;;;;73.42;35.55;;;;;;;-4.08;76.45;101422.09;1754188;81;25719;-49
2023/03/01 04:03:35;;;;;;;74.87;33.70;;;;;;;-4.07;76.41;101424.55;1754289;81;25692;-51
2023/03/01 04:06:04;;;;;;;76.47;34.67;;;;;;;-4.07;76.54;101421.91;1754257;81;26021;-51
2023/03/01 04:08:32;;;;;;;72.08;34.05;;;;;;;-4.07;76.89;101413.98;1754399;81;25630;-48
2023/03/01 04:11:25;;;;;;;75.90;35.58;;;;;;;-4.06;77.06;101420.08;1754274;81;27512;-50
2023/03/01 04:13:32;;;;;;;64.25;28.07;;;;;;;-4.06;77.24;101421.41;1750329;81;25646;-52
2023/03/01 04:15:58;;;;;;;72.25;33.35;;;;;;;-4.04;77.30;101426.80;1754293;81;25399;-49
2023/03/01 04:18:25;;;;;;;73.17;34.48;;;;;;;-3.99;77.45;101436.84;1754271;81;26293;-48
2023/03/01 04:20:55;;;;;;;77.47;35.03;;;;;;;-3.97;77.46;101443.59;1754339;81;25641;-48
2023/03/01 04:23:22;;;;;;;67.80;32.10;;;;;;;-3.96;77.30;101435.16;1754442;80;27621;-48
2023/03/01 04:25:58;;;;;;;78.65;33.60;;;;;;;-3.95;76.77;101430.16;1754152;81;25578;-48
2023/03/01 04:28:32;;;;;;;76.30;33.38;;;;;;;-3.93;77.07;101425.53;1754248;81;25380;-48
2023/03/01 04:31:12;;;;;;;71.85;32.83;;;;;;;-3.92;77.03;101432.44;1753977;81;25465;-48
2023/03/01 04:33:34;;;;;;;73.07;34.10;;;;;;;-3.91;77.15;101422.71;1753384;81;25479;-48
2023/03/01 04:36:05;;;;;;;79.47;34.80;;;;;;;-3.91;77.13;101410.30;1754351;81;27490;-48
2023/03/01 04:38:33;;;;;;;74.95;33.28;;;;;;;-3.89;77.40;101407.48;1754252;81;26018;-48
2023/03/01 04:41:00;;;;;;;80.67;33.02;;;;;;;-3.87;77.36;101396.20;1754466;81;25447;-48
2023/03/01 04:43:29;;;;;;;69.17;30.52;;;;;;;-3.87;77.18;101394.88;1754231;81;25514;-48
2023/03/01 04:46:09;;;;;;;75.37;31.50;;;;;;;-3.88;76.99;101392.75;1728841;81;25405;-48
2023/03/01 04:48:39;;;;;;;63.90;30.48;;;;;;;-3.88;77.06;101396.72;1754461;81;28225;-48
2023/03/01 04:51:08;;;;;;;74.77;32.33;;;;;;;-3.86;77.05;101399.98;1754226;81;25459;-49
2023/03/01 04:53:36;;;;;;;66.70;32.63;;;;;;;-3.86;77.26;101395.22;1754259;80;25467;-49
2023/03/01 04:56:07;;;;;;;72.62;29.55;;;;;;;-3.85;77.10;101399.48;1754226;81;25529;-49
2023/03/01 04:58:34;;;;;;;68.52;29.55;;;;;;;-3.86;77.22;101397.86;1754283;81;25459;-48
2023/03/01 05:01:00;;;;;;;68.33;28.80;;;;;;;-3.84;77.22;101398.48;1754335;81;27430;-48
2023/03/01 05:03:27;;;;;;;68.40;31.27;;;;;;;-3.86;77.21;101397.34;1754244;81;25449;-49
2023/03/01 05:05:59;;;;;;;67.50;28.32;;;;;;;-3.86;76.98;101396.54;1754216;81;25642;-48
2023/03/01 05:08:26;;;;;;;69.65;32.75;;;;;;;-3.87;77.17;101395.70;1754333;81;26275;-48
2023/03/01 05:10:54;;;;;;;80.97;34.78;;;;;;;-3.82;77.15;101412.33;1754398;81;25582;-47
2023/03/01 05:13:22;;;;;;;77.10;35.60;;;;;;;-3.80;77.36;101419.09;1754415;81;27505;-49
2023/03/01 05:15:56;;;;;;;78.97;35.05;;;;;;;-3.80;77.11;101415.12;1754278;81;25410;-49
2023/03/01 05:18:27;;;;;;;79.67;34.30;;;;;;;-3.82;77.16;101413.66;1754453;81;25571;-48
2023/03/01 05:21:03;;;;;;;71.85;32.73;;;;;;;-3.85;77.00;101414.02;1754404;81;25479;-50
2023/03/01 05:23:34;;;;;;;80.60;34.10;;;;;;;-3.85;76.92;101419.31;1753473;81;25400;-49
2023/03/01 05:26:04;;;;;;;67.17;32.70;;;;;;;-3.87;77.07;101418.17;1754438;81;27540;-48
2023/03/01 05:28:32;;;;;;;75.40;32.73;;;;;;;-3.90;77.06;101421.17;1754304;81;25386;-50
2023/03/01 05:30:59;;;;;;;48.08;23.90;;;;;;;-3.92;76.98;101427.16;1754428;81;25554;-50
2023/03/01 05:33:28;;;;;;;69.37;32.38;;;;;;;-3.95;76.74;101425.72;1754314;81;25533;-48
2023/03/01 05:35:54;;;;;;;66.05;31.90;;;;;;;-3.96;76.73;101437.80;1754480;80;25388;-49
2023/03/01 05:38:22;;;;;;;70.87;32.98;;;;;;;-3.96;76.68;101437.80;1754327;81;29764;-48
2023/03/01 05:40:49;;;;;;;75.12;34.50;;;;;;;-3.96;77.23;101433.83;1754306;81;25385;-47
2023/03/01 05:43:18;;;;;;;77.58;34.08;;;;;;;-3.97;77.41;101438.79;1754353;81;25376;-48
2023/03/01 05:45:45;;;;;;;74.60;33.58;;;;;;;-3.96;77.64;101440.44;1754302;81;25542;-48
2023/03/01 05:48:13;;;;;;;70.97;33.18;;;;;;;-3.96;77.58;101439.93;1754355;81;25670;-48
2023/03/01 05:50:47;;;;;;;70.87;33.60;;;;;;;-3.94;77.71;101445.84;1754346;80;27534;-49
2023/03/01 05:53:19;;;;;;;79.42;34.15;;;;;;;-3.91;77.77;101443.86;1754348;81;25542;-49
2023/03/01 05:55:48;;;;;;;74.40;32.48;;;;;;;-3.89;77.72;101445.81;1754397;81;25538;-49
2023/03/01 05:58:19;;;;;;;74.30;33.83;;;;;;;-3.87;77.82;101445.92;1754459;81;25621;-49
2023/03/01 06:00:49;;;;;;;73.35;32.70;;;;;;;-3.82;77.79;101448.02;1754366;81;25590;-49
2023/03/01 06:03:17;;;;;;;77.85;33.60;;;;;;;-3.78;77.87;101448.80;1754500;81;27389;-47
2023/03/01 06:05:45;;;;;;;76.90;36.80;;;;;;;-3.73;78.08;101450.05;1754298;81;25411;-50
2023/03/01 06:08:13;;;;;;;70.08;33.28;;;;;;;-3.68;78.11;101447.67;1754377;81;25545;-48
2023/03/01 06:10:41;;;;;;;72.10;34.98;;;;;;;-3.63;78.30;101450.58;1754296;81;26009;-48
2023/03/01 06:13:09;;;;;;;74.87;34.27;;;;;;;-3.58;78.65;101441.58;1754432;81;25459;-48
2023/03/01 06:15:36;;;;;;;81.92;36.17;;;;;;;-3.50;78.64;101439.34;1754383;81;27491;-47
2023/03/01 06:18:02;;;;;;;73.17;35.63;;;;;;;-3.46;78.46;101440.59;1728708;81;27400;-48
2023/03/01 06:20:30;;;;;;;79.10;36.08;;;;;;;-3.38;79.05;101441.28;1754293;81;25583;-48
2023/03/01 06:22:58;;;;;;;78.40;36.70;;;;;;;-3.26;79.38;101446.09;1754361;81;25642;-50
2023/03/01 06:25:27;;;;;;;76.20;36.73;;;;;;;-3.15;79.65;101448.73;1754379;81;25578;-49
2023/03/01 06:27:55;;;;;;;73.45;36.60;;;;;;;-3.04;79.41;101445.58;1754375;81;28044;-51
2023/03/01 06:30:25;;;;;;;76.75;36.58;;;;;;;-2.91;79.66;101451.48;1754240;80;25658;-53
2023/03/01 06:33:00;;;;;;;73.00;36.23;;;;;;;-2.78;79.81;101447.62;1754394;81;25477;-48
2023/03/01 06:35:21;;;;;;;75.08;36.15;;;;;;;-2.65;80.18;101434.47;1753450;81;25647;-48
2023/03/01 06:37:49;;;;;;;77.70;37.50;;;;;;;-2.48;80.13;101432.86;1754417;81;25744;-53
2023/03/01 06:40:16;;;;;;;81.17;38.70;;;;;;;-2.32;80.39;101437.83;1754401;81;27460;-49
2023/03/01 06:42:50;;;;;;;82.85;39.75;;;;;;;-2.18;79.89;101433.45;1754298;81;25661;-49
2023/03/01 06:45:20;;;;;;;79.75;37.78;;;;;;;-2.05;79.25;101435.33;1754391;81;25142;-49
2023/03/01 06:47:49;;;;;;;88.15;38.90;;;;;;;-1.85;79.95;101440.73;1754391;81;25448;-49
2023/03/01 06:50:18;;;;;;;90.90;41.80;;;;;;;-1.61;80.84;101436.72;1754335;81;25557;-51
2023/03/01 06:52:46;;;;;;;89.00;40.48;;;;;;;-1.34;80.85;101440.77;1729004;81;27557;-49
2023/03/01 06:55:14;;;;;;;86.70;41.42;;;;;;;-1.05;81.14;101446.22;1753478;81;26114;-49
2023/03/01 06:57:40;;;;;;;83.95;40.83;;;;;;;-0.76;81.27;101434.36;1752739;81;25677;-50
2023/03/01 07:00:09;;;;;;;83.35;42.83;;;;;;;-0.48;80.17;101444.45;1752412;81;25668;-49
2023/03/01 07:02:35;;;;;;;86.10;39.60;;;;;;;-0.25;80.11;101443.48;1754439;81;25628;-47
2023/03/01 07:05:03;;;;;;;81.85;38.88;;;;;;;-0.02;79.53;101441.70;1728651;81;27519;-52
2023/03/01 07:07:29;;;;;;;84.37;42.30;;;;;;;0.29;79.84;101440.13;1754024;81;25665;-48
2023/03/01 07:09:56;;;;;;;81.92;40.58;;;;;;;0.57;79.30;101447.46;1754068;81;25632;-49
2023/03/01 07:12:22;;;;;;;112.47;53.80;;;;;;;0.86;78.20;101451.37;1754239;81;25681;-50
2023/03/01 07:14:49;;;;;;;88.00;43.42;;;;;;;1.12;78.83;101451.67;1754392;81;25543;-50
2023/03/01 07:17:15;;;;;;;84.83;42.20;;;;;;;1.52;78.82;101451.87;1754272;81;27480;-50
2023/03/01 07:19:41;;;;;;;87.37;41.25;;;;;;;1.81;77.55;101441.80;1754249;81;25814;-52
2023/03/01 07:22:09;;;;;;;83.82;39.45;;;;;;;2.10;76.79;101434.08;1754351;81;25585;-49
2023/03/01 07:24:35;;;;;;;86.63;41.92;;;;;;;2.34;75.00;101433.67;1754325;81;25528;-49
2023/03/01 07:27:02;;;;;;;79.17;39.83;;;;;;;2.63;74.68;101431.75;1754332;81;25386;-49
2023/03/01 07:29:28;;;;;;;81.65;40.08;;;;;;;2.84;74.68;101427.20;1754310;81;28111;-49
2023/03/01 07:31:55;;;;;;;74.82;37.40;;;;;;;3.23;74.43;101433.48;1754249;81;25326;-49
2023/03/01 07:34:21;;;;;;;78.42;37.88;;;;;;;3.31;71.87;101433.94;1754314;81;25412;-50
2023/03/01 07:36:47;;;;;;;71.60;37.80;;;;;;;3.63;72.18;101430.11;1754423;81;25498;-49
2023/03/01 07:39:13;;;;;;;73.37;36.25;;;;;;;3.91;71.43;101430.69;1754500;81;25601;-52
2023/03/01 07:41:39;;;;;;;60.95;31.97;;;;;;;4.18;71.03;101430.16;1754344;81;27555;-51
2023/03/01 07:44:06;;;;;;;58.78;31.30;;;;;;;4.50;70.04;101430.50;1754198;81;25575;-49
2023/03/01 07:46:32;;;;;;;55.65;28.40;;;;;;;4.72;68.25;101426.59;1754296;81;25364;-48
2023/03/01 07:48:59;;;;;;;54.93;26.07;;;;;;;5.00;67.15;101427.59;1754360;81;25622;-47
2023/03/01 07:51:25;;;;;;;50.48;24.50;;;;;;;5.57;67.21;101428.72;1754331;81;25629;-48
2023/03/01 07:53:51;;;;;;;49.65;24.72;;;;;;;6.21;66.26;101426.57;1754267;81;29751;-48
2023/03/01 07:56:18;;;;;;;55.17;24.70;;;;;;;6.81;64.27;101425.58;1754230;81;25476;-47
2023/03/01 07:58:45;;;;;;;49.88;23.50;;;;;;;7.16;63.63;101426.11;1754336;81;25630;-48
2023/03/01 08:01:15;;;;;;;52.48;23.38;;;;;;;7.44;62.75;101427.63;1754293;81;25649;-47
2023/03/01 08:03:43;;;;;;;83.72;73.97;;;;;;;7.78;62.40;101426.76;1754353;81;25637;-47
2023/03/01 08:06:13;;;;;;;103.97;94.17;;;;;;;8.27;61.53;101428.27;1754314;81;28030;-47
2023/03/01 08:08:40;;;;;;;100.35;91.15;;;;;;;8.85;60.28;101432.16;1754219;81;25665;-47
2023/03/01 08:11:09;;;;;;;103.97;94.58;;;;;;;9.33;58.52;101431.86;1754275;81;25396;-47
2023/03/01 08:13:35;;;;;;;;;;;;;;;9.54;58.16;101438.85;1756871;81;26122;-46
2023/03/01 08:16:06;;;;;;;51.90;21.30;;;;;;;9.64;55.67;101444.78;1754358;81;32827;-46
2023/03/01 08:18:33;;;;;;;57.93;48.73;;;;;;;9.59;55.72;101438.05;1753734;81;27539;-47
2023/03/01 08:21:13;;;;;;;104.15;94.52;;;;;;;9.56;55.85;101442.63;1754171;81;25500;-47
2023/03/01 08:23:41;;;;;;;99.67;90.87;;;;;;;9.71;55.05;101436.39;1753726;81;25488;-45
2023/03/01 08:26:18;;;;;;;98.65;90.00;;;;;;;9.66;54.53;101435.85;1754247;81;26072;-46
2023/03/01 08:28:45;;;;;;;97.82;88.82;;;;;;;9.82;54.67;101434.45;1753766;81;25471;-45
2023/03/01 08:31:23;;;;;;;100.22;91.12;;;;;;;10.02;54.09;101434.92;1754261;81;27503;-46
2023/03/01 08:33:57;;;;;;;96.55;88.25;;;;;;;10.26;53.83;101421.00;1754900;81;25428;-45
2023/03/01 08:36:28;;;;;;;97.82;89.50;;;;;;;10.46;52.95;101420.66;1754873;81;25519;-46
2023/03/01 08:38:56;;;;;;;97.92;89.10;;;;;;;10.54;51.47;101413.83;1754829;81;25586;-45
2023/03/01 08:41:23;;;;;;;95.92;87.78;;;;;;;10.59;52.20;101417.85;1754799;81;25368;-47
2023/03/01 08:43:52;;;;;;;95.87;88.05;;;;;;;10.74;51.56;101416.38;1754989;81;27532;-46
2023/03/01 08:46:18;;;;;;;99.15;89.87;;;;;;;10.98;52.04;101419.19;1755013;81;27260;-49
2023/03/01 08:48:45;;;;;;;94.67;86.72;;;;;;;11.34;51.55;101425.62;1754940;81;25633;-46
2023/03/01 08:51:17;;;;;;;97.10;88.90;;;;;;;11.53;50.92;101427.05;1754886;81;25682;-48
2023/03/01 08:53:45;;;;;;;95.28;86.75;;;;;;;11.67;50.03;101422.30;1755051;81;25644;-45
2023/03/01 08:56:13;;;;;;;96.67;87.97;;;;;;;11.87;49.93;101426.69;1754261;81;27493;-46
2023/03/01 08:58:39;;;;;;;98.42;90.20;;;;;;;12.24;50.00;101428.67;1753913;81;25764;-45
2023/03/01 09:01:13;;;;;;;95.90;87.60;;;;;;;12.30;48.79;101428.05;1754132;81;25602;-46
2023/03/01 09:03:39;;;;;;;96.65;88.17;;;;;;;12.29;48.15;101426.42;1731367;81;27740;-45
2023/03/01 09:06:08;;;;;;;95.22;87.17;;;;;;;11.91;47.13;101420.40;1755024;81;32374;-45
2023/03/01 09:08:39;;;;;;;95.60;86.67;;;;;;;11.76;47.75;101421.39;1755045;81;27509;-46
2023/03/01 09:11:10;;;;;;;94.65;86.55;;;;;;;12.04;48.25;101420.81;1754885;81;25456;-46
2023/03/01 09:13:36;;;;;;;96.37;87.85;;;;;;;12.29;47.89;101423.70;1754915;81;25546;-45
2023/03/01 09:16:08;;;;;;;92.53;84.67;;;;;;;12.41;47.31;101416.48;1754877;81;25506;-45
2023/03/01 09:18:36;;;;;;;94.47;86.53;;;;;;;12.50;47.51;101407.95;1755034;81;25387;-44
2023/03/01 09:21:13;;;;;;;94.97;86.87;;;;;;;12.63;46.58;101405.03;1754938;81;27474;-45
2023/03/01 09:23:44;;;;;;;95.57;87.57;;;;;;;12.47;45.53;101401.75;1754842;81;25479;-45
2023/03/01 09:26:16;;;;;;;93.12;84.77;;;;;;;12.11;45.47;101407.69;1754330;81;26013;-44
2023/03/01 09:28:45;;;;;;;94.13;85.95;;;;;;;11.99;45.93;101402.70;1754928;81;25614;-45
2023/03/01 09:31:16;;;;;;;95.90;87.72;;;;;;;12.01;46.60;101395.63;1755080;81;25551;-44
2023/03/01 09:33:48;;;;;;;92.00;84.17;;;;;;;12.30;46.74;101403.07;1735799;81;28371;-46
2023/03/01 09:36:20;;;;;;;93.50;85.17;;;;;;;12.60;46.76;101398.83;1733196;82;25561;-44
2023/03/01 09:38:49;;;;;;;93.67;85.70;;;;;;;12.80;46.70;101393.07;1732393;82;25473;-46
2023/03/01 09:41:23;;;;;;;93.92;85.57;;;;;;;13.15;46.14;101396.29;1704242;82;25640;-45
2023/03/01 09:43:59;;;;;;;93.30;85.53;;;;;;;13.55;45.77;101402.64;1732784;82;25635;-46
2023/03/01 09:46:27;;;;;;;93.22;85.07;;;;;;;13.76;45.66;101399.77;1733191;82;27490;-45
2023/03/01 09:49:05;;;;;;;93.10;85.40;;;;;;;13.90;45.09;101403.04;1733076;82;25599;-45
2023/03/01 09:51:35;;;;;;;91.65;84.20;;;;;;;14.10;43.56;101397.72;1733293;82;25196;-44
2023/03/01 09:54:05;;;;;;;89.95;82.55;;;;;;;14.23;44.38;101398.78;1733110;82;25564;-45
2023/03/01 09:56:38;;;;;;;;;;;;;;;14.55;44.22;101386.88;1735826;82;25539;-45
2023/03/01 09:59:15;;;;;;;92.35;85.12;;;;;;;15.08;43.72;101385.31;1733207;82;27495;-44
2023/03/01 10:02:33;;;;;;;93.15;85.38;;;;;;;15.37;43.28;101374.47;1733170;82;25630;-46
2023/03/01 10:05:05;;;;;;;92.90;85.50;;;;;;;15.55;42.80;101372.05;1732170;81;25570;-45
2023/03/01 10:07:45;;;;;;;57.40;52.30;;;;;;;15.93;42.09;101369.35;1730013;82;25863;-47
2023/03/01 10:10:37;;;;;;;91.72;84.03;;;;;;;16.13;41.20;101366.00;1733291;82;25599;-46
2023/03/01 10:13:17;;;;;;;89.70;82.25;;;;;;;16.36;41.42;101367.20;1733296;82;27547;-45
2023/03/01 10:15:48;;;;;;;90.12;83.17;;;;;;;16.73;41.48;101364.91;1733198;82;25444;-46
2023/03/01 10:18:21;;;;;;;90.67;83.50;;;;;;;17.09;40.57;101353.58;1704257;82;25692;-46
2023/03/01 10:21:04;;;;;;;90.92;83.67;;;;;;;17.20;40.30;101354.58;1733241;82;25607;-44
2023/03/01 10:23:34;;;;;;;89.92;82.65;;;;;;;17.74;40.31;101358.88;1727280;82;25469;-46
2023/03/01 10:26:21;;;;;;;91.45;83.62;;;;;;;17.91;39.19;101353.34;1733208;82;28126;-45
2023/03/01 10:28:54;;;;;;;87.12;80.42;;;;;;;18.19;38.88;101350.06;1732360;82;25387;-45
2023/03/01 10:31:42;;;;;;;88.17;81.40;;;;;;;18.34;37.77;101351.94;1731803;82;25566;-45
2023/03/01 10:34:30;;;;;;;84.32;77.72;;;;;;;18.48;38.20;101345.05;1733180;82;26070;-47
2023/03/01 10:37:21;;;;;;;85.80;79.13;;;;;;;18.70;37.99;101344.44;1733557;82;25602;-48
2023/03/01 10:40:10;;;;;;;86.10;79.37;;;;;;;19.02;37.58;101340.07;1733336;82;27529;-46
2023/03/01 10:42:49;;;;;;;84.07;77.27;;;;;;;19.27;36.85;101340.08;1733343;82;25637;-45
2023/03/01 10:45:33;;;;;;;84.37;78.40;;;;;;;19.69;37.09;101336.28;1733341;82;25562;-47
2023/03/01 10:48:14;;;;;;;71.62;66.33;;;;;;;20.10;36.81;101335.17;1733243;82;25574;-46
2023/03/01 10:50:50;;;;;;;85.50;79.07;;;;;;;20.38;36.14;101335.77;1733382;82;25599;-45
2023/03/01 10:53:35;;;;;;;84.03;77.45;;;;;;;20.38;36.06;101333.58;1733355;82;27465;-46
2023/03/01 10:56:13;;;;;;;25.40;13.10;;;;;;;20.28;35.26;101334.90;1733235;82;25728;-44
2023/03/01 10:58:59;;;;;;;30.85;12.33;;;;;;;20.10;35.18;101341.25;1733115;82;25554;-43
2023/03/01 11:01:35;;;;;;;81.70;75.85;;;;;;;19.66;34.40;101336.39;1733277;82;26084;-45
2023/03/01 11:04:14;;;;;;;84.83;78.42;;;;;;;19.36;34.67;101331.75;1733401;82;25425;-44
2023/03/01 11:06:43;;;;;;;86.55;80.22;;;;;;;19.09;35.25;101330.49;1733450;82;32801;-47
2023/03/01 11:09:24;;;;;;;85.92;78.97;;;;;;;19.16;35.33;101323.87;1733317;82;25857;-47
2023/03/01 11:11:56;;;;;;;86.15;79.42;;;;;;;19.55;35.32;101319.61;1733232;82;25964;-45
2023/03/01 11:14:27;;;;;;;86.87;80.25;;;;;;;19.71;34.89;101325.17;1733288;82;25685;-43
2023/03/01 11:17:19;;;;;;;85.62;79.42;;;;;;;19.97;34.83;101321.25;1733350;82;25461;-46
2023/03/01 11:20:04;;;;;;;82.62;76.30;;;;;;;20.45;34.51;101318.65;1733327;82;27670;-43
2023/03/01 11:22:33;;;;;;;86.75;79.97;;;;;;;20.87;34.26;101314.91;1731420;82;25695;-47
2023/03/01 11:25:02;;;;;;;85.07;78.95;;;;;;;20.96;33.46;101315.28;1733317;82;25266;-44
2023/03/01 11:27:32;;;;;;;;;;;;;;;20.64;33.51;101313.32;1735829;82;25578;-44
2023/03/01 11:30:24;;;;;;;91.32;84.07;;;;;;;20.21;32.39;101305.83;1733297;82;25459;-45
2023/03/01 11:33:18;;;;;;;27.05;15.53;;;;;;;20.15;33.79;101310.20;1737561;81;27579;-45